createdAt,value
2023-02-27T00:00:46.763Z,14.48
2023-02-27T00:02:50.828Z,12.65
2023-02-27T00:04:54.598Z,15.32
2023-02-27T00:06:56.546Z,10.35
2023-02-27T00:08:58.492Z,14.45
2023-02-27T00:13:02.302Z,10.73
2023-02-27T00:15:12.812Z,9.73
2023-02-27T00:17:14.635Z,9.77
2023-02-27T00:19:16.631Z,9.77
2023-02-27T00:23:20.358Z,13.98
2023-02-27T00:27:24.255Z,10.25
2023-02-27T00:29:26.329Z,8.02
2023-02-27T00:33:31.053Z,6.97
2023-02-27T00:35:33.055Z,8.30
2023-02-27T00:39:36.849Z,11.55
2023-02-27T00:41:40.101Z,10.50
2023-02-27T00:43:42.001Z,10.93
2023-02-27T00:45:44.094Z,9.13
2023-02-27T00:49:48.052Z,9.88
2023-02-27T00:51:50.023Z,11.80
2023-02-27T00:53:51.981Z,9.73
2023-02-27T00:55:54.043Z,11.93
2023-02-27T00:59:58.003Z,8.82
2023-02-27T01:04:02.210Z,9.70
2023-02-27T01:06:04.261Z,11.25
2023-02-27T01:10:09.587Z,17.95
2023-02-27T01:12:11.464Z,12.70
2023-02-27T01:14:13.442Z,10.98
2023-02-27T01:16:15.507Z,11.35
2023-02-27T01:18:17.475Z,11.00
2023-02-27T01:20:19.417Z,9.35
2023-02-27T01:22:21.531Z,10.20
2023-02-27T01:24:23.482Z,9.23
2023-02-27T01:26:25.611Z,8.15
2023-02-27T01:28:27.829Z,6.82
2023-02-27T01:30:30.152Z,11.25
2023-02-27T01:32:32.063Z,8.45
2023-02-27T01:34:34.415Z,10.88
2023-02-27T01:36:36.345Z,15.05
2023-02-27T01:38:38.260Z,13.05
2023-02-27T01:40:41.698Z,12.35
2023-02-27T01:42:43.575Z,14.88
2023-02-27T01:45:03.577Z,14.82
2023-02-27T01:47:05.644Z,7.47
2023-02-27T01:51:20.028Z,11.90
2023-02-27T01:53:26.066Z,12.90
2023-02-27T01:55:30.650Z,12.85
2023-02-27T01:57:32.562Z,18.67
2023-02-27T01:59:36.329Z,16.92
2023-02-27T02:01:39.143Z,17.40
2023-02-27T02:04:04.947Z,14.38
2023-02-27T02:06:07.718Z,23.83
2023-02-27T02:08:09.996Z,18.55
2023-02-27T02:10:15.141Z,25.50
2023-02-27T02:12:20.149Z,19.77
2023-02-27T02:14:22.007Z,21.02
2023-02-27T02:16:36.834Z,20.52
2023-02-27T02:18:44.811Z,19.17
2023-02-27T02:21:07.681Z,14.00
2023-02-27T02:23:27.998Z,18.83
2023-02-27T02:25:41.522Z,20.50
2023-02-27T02:27:55.191Z,17.92
2023-02-27T02:30:35.852Z,20.83
2023-02-27T02:33:16.528Z,20.48
2023-02-27T02:35:36.506Z,20.10
2023-02-27T02:38:08.064Z,17.30
2023-02-27T02:40:25.957Z,16.27
2023-02-27T02:42:43.026Z,14.65
2023-02-27T02:44:55.348Z,20.13
2023-02-27T02:49:23.169Z,14.30
2023-02-27T02:52:00.624Z,17.55
2023-02-27T02:54:26.870Z,16.92
2023-02-27T02:56:44.035Z,19.90
2023-02-27T02:58:59.735Z,21.73
2023-02-27T03:01:13.949Z,24.60
2023-02-27T03:03:35.426Z,18.85
2023-02-27T03:05:46.912Z,17.90
2023-02-27T03:07:58.128Z,17.33
2023-02-27T03:10:14.759Z,19.88
2023-02-27T03:12:21.604Z,21.80
2023-02-27T03:14:30.716Z,22.13
2023-02-27T03:16:43.318Z,22.02
2023-02-27T03:18:56.727Z,24.45
2023-02-27T03:21:04.710Z,20.75
2023-02-27T03:23:13.882Z,19.90
2023-02-27T03:25:17.148Z,23.73
2023-02-27T03:27:22.036Z,27.42
2023-02-27T03:29:36.403Z,23.33
2023-02-27T03:31:41.711Z,23.60
2023-02-27T03:33:55.992Z,21.90
2023-02-27T03:36:38.072Z,27.15
2023-02-27T03:38:51.309Z,23.45
2023-02-27T03:41:13.408Z,27.30
2023-02-27T03:43:27.606Z,26.05
2023-02-27T03:46:04.711Z,24.63
2023-02-27T03:48:07.902Z,31.02
2023-02-27T03:50:10.991Z,22.55
2023-02-27T03:52:12.948Z,24.40
2023-02-27T03:54:30.001Z,27.80
2023-02-27T03:56:40.853Z,20.65
2023-02-27T03:58:43.032Z,18.35
2023-02-27T04:00:45.291Z,19.30
2023-02-27T04:02:51.103Z,19.35
2023-02-27T04:04:52.999Z,18.45
2023-02-27T04:07:23.424Z,21.20
2023-02-27T04:10:10.366Z,14.27
2023-02-27T04:12:30.026Z,18.00
2023-02-27T04:14:40.724Z,19.73
2023-02-27T04:17:10.663Z,21.17
2023-02-27T04:19:30.260Z,17.88
2023-02-27T04:21:49.976Z,13.52
2023-02-27T04:24:08.229Z,17.52
2023-02-27T04:26:36.628Z,19.65
2023-02-27T04:28:38.453Z,19.45
2023-02-27T04:31:09.032Z,20.73
2023-02-27T04:33:38.985Z,21.13
2023-02-27T04:35:52.438Z,21.50
2023-02-27T04:38:05.774Z,14.10
2023-02-27T04:40:11.488Z,24.70
2023-02-27T04:42:21.043Z,24.10
2023-02-27T04:44:25.241Z,19.83
2023-02-27T04:46:29.260Z,25.52
2023-02-27T04:48:37.612Z,28.00
2023-02-27T04:50:50.337Z,20.75
2023-02-27T04:52:57.992Z,21.77
2023-02-27T04:55:06.704Z,27.95
2023-02-27T04:57:16.755Z,25.27
2023-02-27T04:59:26.150Z,20.23
2023-02-27T05:01:41.772Z,17.58
2023-02-27T05:03:47.881Z,24.73
2023-02-27T05:05:52.291Z,27.38
2023-02-27T05:08:12.608Z,20.75
2023-02-27T05:10:36.433Z,13.73
2023-02-27T05:12:51.662Z,16.15
2023-02-27T05:15:17.827Z,19.75
2023-02-27T05:17:25.442Z,16.20
2023-02-27T05:19:27.484Z,16.60
2023-02-27T05:23:47.616Z,20.60
2023-02-27T05:26:41.648Z,14.00
2023-02-27T05:28:51.790Z,21.08
2023-02-27T05:30:57.350Z,21.98
2023-02-27T05:33:12.445Z,23.42
2023-02-27T05:35:32.878Z,22.75
2023-02-27T05:37:44.453Z,20.45
2023-02-27T05:39:49.009Z,26.05
2023-02-27T05:41:56.444Z,24.23
2023-02-27T05:44:13.343Z,14.43
2023-02-27T05:46:21.307Z,14.93
2023-02-27T05:48:28.970Z,12.85
2023-02-27T05:50:34.057Z,20.70
2023-02-27T05:52:37.672Z,23.75
2023-02-27T05:54:48.810Z,18.75
2023-02-27T05:56:53.811Z,19.05
2023-02-27T05:59:12.722Z,22.38
2023-02-27T06:01:14.548Z,23.75
2023-02-27T06:03:16.705Z,26.17
2023-02-27T06:05:19.377Z,22.95
2023-02-27T06:07:22.635Z,27.00
2023-02-27T06:09:25.048Z,29.80
2023-02-27T06:11:26.910Z,34.33
2023-02-27T06:13:28.924Z,23.35
2023-02-27T06:17:32.552Z,19.63
2023-02-27T06:19:34.555Z,18.30
2023-02-27T06:23:38.157Z,32.10
2023-02-27T06:25:42.257Z,20.77
2023-02-27T06:27:44.349Z,22.25
2023-02-27T06:31:48.069Z,28.38
2023-02-27T06:35:52.187Z,23.50
2023-02-27T06:37:54.096Z,26.00
2023-02-27T06:39:58.696Z,29.77
2023-02-27T06:42:01.696Z,26.67
2023-02-27T06:44:03.722Z,21.73
2023-02-27T06:48:10.341Z,33.47
2023-02-27T06:50:14.182Z,31.33
2023-02-27T06:52:16.102Z,28.10
2023-02-27T06:54:18.001Z,28.25
2023-02-27T06:56:19.933Z,33.30
2023-02-27T06:58:21.875Z,27.58
2023-02-27T07:00:24.155Z,19.55
2023-02-27T07:02:26.372Z,14.60
2023-02-27T07:04:28.312Z,20.50
2023-02-27T07:09:01.509Z,21.63
2023-02-27T07:11:08.277Z,14.32
2023-02-27T07:13:10.127Z,20.25
2023-02-27T07:15:12.421Z,23.40
2023-02-27T07:17:14.298Z,27.33
2023-02-27T07:19:16.644Z,13.73
2023-02-27T07:21:18.584Z,15.95
2023-02-27T07:23:20.576Z,16.13
2023-02-27T07:27:24.479Z,12.15
2023-02-27T07:29:26.513Z,16.33
2023-02-27T07:33:32.671Z,15.07
2023-02-27T07:35:34.779Z,17.73
2023-02-27T07:37:36.902Z,12.95
2023-02-27T07:41:40.599Z,12.85
2023-02-27T07:43:42.531Z,11.63
2023-02-27T07:45:45.470Z,15.57
2023-02-27T07:47:47.344Z,14.55
2023-02-27T07:49:49.253Z,14.30
2023-02-27T07:51:51.135Z,10.90
2023-02-27T07:53:53.091Z,14.77
2023-02-27T07:55:54.950Z,15.70
2023-02-27T07:57:56.982Z,16.52
2023-02-27T08:02:00.989Z,16.88
2023-02-27T08:04:02.897Z,16.35
2023-02-27T08:06:04.944Z,12.10
2023-02-27T08:10:09.350Z,14.80
2023-02-27T08:12:12.173Z,12.27
2023-02-27T08:14:14.205Z,13.02
2023-02-27T08:18:18.386Z,15.43
2023-02-27T08:22:26.327Z,14.90
2023-02-27T08:24:29.328Z,16.83
2023-02-27T08:26:31.471Z,9.43
2023-02-27T08:28:33.388Z,11.55
2023-02-27T08:30:35.303Z,9.27
2023-02-27T08:32:38.682Z,10.85
2023-02-27T08:34:40.702Z,12.18
2023-02-27T08:38:44.553Z,9.77
2023-02-27T08:40:46.665Z,16.00
2023-02-27T08:44:50.653Z,19.63
2023-02-27T08:48:54.868Z,13.63
2023-02-27T08:50:57.923Z,12.30
2023-02-27T08:52:59.951Z,14.52
2023-02-27T08:55:01.864Z,13.10
2023-02-27T08:57:04.488Z,13.98
2023-02-27T08:59:06.410Z,16.83
2023-02-27T09:01:08.400Z,20.15
2023-02-27T09:05:12.061Z,19.92
2023-02-27T09:07:13.946Z,17.55
2023-02-27T09:09:15.841Z,18.02
2023-02-27T09:11:17.854Z,17.20
2023-02-27T09:15:21.632Z,16.05
2023-02-27T09:17:23.556Z,11.07
2023-02-27T09:19:25.506Z,17.80
2023-02-27T09:21:29.116Z,19.23
2023-02-27T09:23:32.255Z,21.13
2023-02-27T09:25:34.167Z,20.58
2023-02-27T09:27:36.188Z,27.55
2023-02-27T09:31:39.899Z,22.45
2023-02-27T09:33:41.851Z,23.63
2023-02-27T09:35:43.759Z,13.85
2023-02-27T09:37:45.997Z,16.17
2023-02-27T09:39:48.303Z,20.85
2023-02-27T09:42:05.373Z,24.58
2023-02-27T09:44:19.332Z,21.17
2023-02-27T09:46:25.649Z,18.10
2023-02-27T09:48:27.697Z,7.95
2023-02-27T09:50:38.571Z,16.73
2023-02-27T09:52:40.445Z,15.15
2023-02-27T09:57:46.243Z,11.63
2023-02-27T09:59:56.826Z,14.68
2023-02-27T10:02:13.395Z,16.90
2023-02-27T10:04:40.269Z,8.73
2023-02-27T10:07:06.297Z,14.13
2023-02-27T10:09:46.229Z,12.20
2023-02-27T10:11:53.971Z,15.13
2023-02-27T10:14:04.339Z,15.23
2023-02-27T10:16:11.700Z,15.65
2023-02-27T10:18:26.971Z,19.20
2023-02-27T10:20:34.629Z,11.07
2023-02-27T10:22:42.884Z,10.57
2023-02-27T10:25:31.814Z,16.52
2023-02-27T10:27:34.586Z,19.65
2023-02-27T10:29:41.686Z,12.68
2023-02-27T10:31:46.637Z,21.08
2023-02-27T10:33:48.826Z,17.02
2023-02-27T10:35:53.871Z,10.35
2023-02-27T10:38:27.058Z,15.48
2023-02-27T10:40:30.458Z,20.67
2023-02-27T10:42:41.529Z,21.25
2023-02-27T10:44:43.851Z,29.00
2023-02-27T10:46:48.230Z,23.33
2023-02-27T10:48:51.920Z,24.67
2023-02-27T10:51:13.764Z,20.33
2023-02-27T10:53:22.648Z,22.42
2023-02-27T10:55:33.615Z,21.45
2023-02-27T10:57:43.358Z,12.75
2023-02-27T10:59:53.030Z,21.92
2023-02-27T11:02:01.269Z,15.38
2023-02-27T11:04:03.216Z,20.70
2023-02-27T11:06:20.740Z,16.65
2023-02-27T11:08:26.111Z,22.92
2023-02-27T11:10:29.058Z,19.52
2023-02-27T11:12:34.619Z,13.40
2023-02-27T11:14:48.041Z,8.00
2023-02-27T11:16:53.473Z,17.00
2023-02-27T11:18:57.340Z,24.20
2023-02-27T11:21:18.066Z,21.30
2023-02-27T11:23:23.406Z,24.85
2023-02-27T11:25:25.606Z,21.33
2023-02-27T11:27:30.214Z,18.15
2023-02-27T11:29:34.372Z,18.30
2023-02-27T11:31:38.037Z,20.30
2023-02-27T11:33:49.048Z,14.80
2023-02-27T11:35:57.644Z,15.95
2023-02-27T11:38:16.521Z,25.60
2023-02-27T11:40:19.856Z,25.55
2023-02-27T11:42:37.043Z,22.13
2023-02-27T11:44:50.691Z,26.45
2023-02-27T11:47:07.967Z,21.15
2023-02-27T11:49:27.120Z,17.85
2023-02-27T11:51:47.507Z,25.42
2023-02-27T11:53:52.618Z,15.77
2023-02-27T11:55:59.522Z,13.93
2023-02-27T11:58:11.880Z,17.77
2023-02-27T12:00:31.211Z,21.20
2023-02-27T12:03:05.382Z,13.98
2023-02-27T12:05:15.357Z,22.60
2023-02-27T12:07:21.773Z,22.30
2023-02-27T12:09:55.896Z,11.68
2023-02-27T12:12:00.410Z,14.77
2023-02-27T12:14:23.044Z,18.88
2023-02-27T12:16:38.024Z,16.05
2023-02-27T12:19:26.502Z,13.85
2023-02-27T12:21:33.100Z,20.98
2023-02-27T12:23:50.215Z,16.60
2023-02-27T12:26:01.535Z,11.73
2023-02-27T12:28:13.452Z,17.20
2023-02-27T12:30:25.925Z,13.52
2023-02-27T12:32:41.235Z,21.55
2023-02-27T12:34:54.786Z,13.77
2023-02-27T12:37:07.062Z,17.25
2023-02-27T12:41:47.631Z,21.90
2023-02-27T12:44:04.350Z,22.67
2023-02-27T12:46:17.089Z,14.07
2023-02-27T12:48:40.220Z,14.55
2023-02-27T12:51:05.367Z,15.82
2023-02-27T12:53:48.132Z,16.38
2023-02-27T12:56:01.162Z,15.15
2023-02-27T12:58:31.182Z,16.50
2023-02-27T13:01:02.559Z,13.90
2023-02-27T13:03:12.917Z,11.40
2023-02-27T13:05:17.310Z,14.88
2023-02-27T13:07:28.693Z,15.13
2023-02-27T13:09:45.415Z,18.47
2023-02-27T13:11:56.150Z,11.93
2023-02-27T13:14:24.352Z,10.43
2023-02-27T13:16:31.756Z,11.07
2023-02-27T13:18:59.538Z,15.60
2023-02-27T13:21:24.676Z,10.65
2023-02-27T13:23:33.894Z,21.45
2023-02-27T13:25:39.700Z,22.77
2023-02-27T13:27:51.916Z,22.48
2023-02-27T13:32:32.647Z,15.63
2023-02-27T13:34:57.586Z,25.98
2023-02-27T13:37:03.599Z,15.93
2023-02-27T13:39:25.704Z,24.48
2023-02-27T13:41:28.203Z,30.95
2023-02-27T13:43:46.420Z,31.73
2023-02-27T13:45:58.016Z,26.33
2023-02-27T13:47:59.896Z,23.52
2023-02-27T13:50:05.098Z,17.85
2023-02-27T13:52:07.059Z,30.63
2023-02-27T13:54:15.033Z,26.33
2023-02-27T13:56:22.856Z,24.23
2023-02-27T13:58:25.096Z,19.50
2023-02-27T14:00:29.742Z,17.38
2023-02-27T14:02:56.774Z,16.25
2023-02-27T14:05:05.100Z,25.20
2023-02-27T14:07:12.029Z,23.70
2023-02-27T14:09:18.783Z,31.77
2023-02-27T14:11:23.322Z,28.23
2023-02-27T14:13:44.017Z,24.95
2023-02-27T14:15:53.405Z,17.83
2023-02-27T14:18:12.688Z,16.33
2023-02-27T14:20:19.852Z,25.60
2023-02-27T14:22:29.979Z,24.05
2023-02-27T14:24:44.826Z,23.92
2023-02-27T14:26:53.539Z,24.30
2023-02-27T14:28:56.560Z,23.25
2023-02-27T14:31:13.746Z,23.10
2023-02-27T14:33:41.622Z,29.20
2023-02-27T14:35:46.853Z,13.05
2023-02-27T14:37:49.449Z,19.20
2023-02-27T14:39:54.431Z,12.98
2023-02-27T14:42:05.491Z,24.40
2023-02-27T14:44:28.642Z,20.35
2023-02-27T14:46:30.712Z,21.83
2023-02-27T14:48:33.162Z,18.42
2023-02-27T14:50:38.911Z,15.43
2023-02-27T14:52:44.234Z,25.90
2023-02-27T14:54:46.308Z,21.02
2023-02-27T14:59:04.347Z,29.13
2023-02-27T15:01:09.904Z,15.63
2023-02-27T15:03:21.533Z,24.60
2023-02-27T15:05:29.577Z,12.25
2023-02-27T15:07:34.518Z,16.67
2023-02-27T15:09:43.570Z,16.95
2023-02-27T15:11:57.568Z,23.15
2023-02-27T15:14:06.849Z,12.35
2023-02-27T15:16:23.740Z,28.98
2023-02-27T15:18:26.286Z,14.48
2023-02-27T15:20:33.682Z,19.00
2023-02-27T15:22:39.671Z,25.25
2023-02-27T15:24:50.273Z,23.42
2023-02-27T15:26:58.982Z,26.75
2023-02-27T15:29:01.273Z,25.20
2023-02-27T15:31:03.900Z,32.65
2023-02-27T15:33:15.334Z,28.20
2023-02-27T15:35:27.973Z,30.85
2023-02-27T15:37:33.116Z,25.45
2023-02-27T15:39:36.827Z,34.15
2023-02-27T15:41:39.420Z,24.00
2023-02-27T15:43:42.056Z,27.75
2023-02-27T15:45:44.804Z,20.23
2023-02-27T15:47:47.674Z,28.70
2023-02-27T15:49:53.805Z,33.22
2023-02-27T15:52:12.640Z,33.88
2023-02-27T15:54:15.216Z,26.60
2023-02-27T15:56:20.400Z,20.20
2023-02-27T15:58:30.128Z,26.50
2023-02-27T16:00:35.803Z,24.48
2023-02-27T16:02:47.631Z,33.30
2023-02-27T16:04:50.341Z,30.15
2023-02-27T16:07:03.323Z,32.97
2023-02-27T16:09:21.808Z,13.10
2023-02-27T16:11:30.075Z,27.80
2023-02-27T16:13:37.938Z,18.70
2023-02-27T16:15:41.121Z,16.33
2023-02-27T16:17:56.014Z,17.83
2023-02-27T16:20:01.941Z,31.30
2023-02-27T16:22:11.324Z,29.55
2023-02-27T16:24:31.625Z,26.13
2023-02-27T16:26:38.472Z,31.25
2023-02-27T16:28:52.831Z,23.58
2023-02-27T16:30:54.756Z,30.23
2023-02-27T16:33:02.028Z,22.58
2023-02-27T16:35:05.961Z,28.60
2023-02-27T16:37:17.215Z,28.83
2023-02-27T16:39:19.456Z,31.67
2023-02-27T16:41:24.146Z,22.13
2023-02-27T16:43:27.892Z,23.88
2023-02-27T16:45:31.284Z,33.33
2023-02-27T16:47:33.482Z,27.48
2023-02-27T16:49:35.656Z,30.20
2023-02-27T16:51:37.747Z,24.65
2023-02-27T16:53:39.756Z,23.13
2023-02-27T16:57:45.443Z,26.23
2023-02-27T17:01:49.668Z,20.35
2023-02-27T17:03:53.184Z,19.50
2023-02-27T17:05:55.262Z,27.65
2023-02-27T17:07:57.287Z,17.35
2023-02-27T17:12:05.720Z,25.35
2023-02-27T17:14:08.368Z,16.65
2023-02-27T17:16:14.470Z,22.98
2023-02-27T17:18:16.381Z,15.73
2023-02-27T17:20:21.551Z,18.83
2023-02-27T17:22:23.769Z,29.17
2023-02-27T17:24:25.680Z,24.45
2023-02-27T17:26:28.784Z,26.40
2023-02-27T17:28:33.177Z,33.40
2023-02-27T17:30:37.035Z,33.42
2023-02-27T17:32:39.235Z,16.77
2023-02-27T17:34:41.296Z,29.77
2023-02-27T17:38:57.379Z,26.77
2023-02-27T17:40:59.659Z,29.30
2023-02-27T17:43:04.161Z,31.80
2023-02-27T17:45:07.340Z,22.20
2023-02-27T17:47:09.399Z,33.78
2023-02-27T17:51:20.605Z,29.70
2023-02-27T17:53:24.344Z,35.40
2023-02-27T17:55:28.102Z,35.08
2023-02-27T17:57:30.364Z,31.17
2023-02-27T17:59:32.820Z,31.55
2023-02-27T18:01:34.884Z,35.72
2023-02-27T18:03:36.937Z,36.50
2023-02-27T18:07:40.968Z,33.85
2023-02-27T18:09:45.723Z,27.23
2023-02-27T18:11:47.655Z,39.47
2023-02-27T18:14:32.520Z,33.60
2023-02-27T18:17:32.664Z,38.17
2023-02-27T18:19:39.508Z,40.17
2023-02-27T18:21:48.863Z,33.10
2023-02-27T18:23:52.773Z,30.15
2023-02-27T18:25:58.141Z,36.10
2023-02-27T18:28:01.329Z,44.28
2023-02-27T18:30:03.765Z,36.05
2023-02-27T18:32:09.175Z,27.13
2023-02-27T18:34:12.894Z,19.67
2023-02-27T18:36:27.946Z,38.70
2023-02-27T18:38:55.111Z,28.13
2023-02-27T18:40:57.900Z,32.33
2023-02-27T18:43:07.792Z,16.77
2023-02-27T18:45:13.185Z,35.85
2023-02-27T18:47:18.234Z,23.63
2023-02-27T18:49:20.153Z,34.50
2023-02-27T18:51:22.148Z,26.50
2023-02-27T18:53:24.088Z,26.23
2023-02-27T18:55:29.561Z,28.42
2023-02-27T18:57:31.424Z,26.33
2023-02-27T18:59:41.443Z,23.33
2023-02-27T19:01:43.868Z,32.10
2023-02-27T19:03:46.200Z,29.00
2023-02-27T19:05:50.070Z,25.70
2023-02-27T19:07:52.079Z,33.42
2023-02-27T19:11:56.079Z,25.48
2023-02-27T19:14:08.519Z,26.08
2023-02-27T19:16:10.546Z,19.95
2023-02-27T19:20:16.619Z,20.25
2023-02-27T19:22:19.272Z,23.83
2023-02-27T19:24:21.268Z,26.55
2023-02-27T19:28:28.871Z,29.58
2023-02-27T19:30:31.170Z,26.45
2023-02-27T19:32:34.761Z,29.52
2023-02-27T19:34:36.820Z,31.67
2023-02-27T19:38:42.216Z,27.92
2023-02-27T19:42:45.900Z,30.42
2023-02-27T19:45:09.671Z,23.10
2023-02-27T19:47:11.667Z,34.70
2023-02-27T19:49:13.693Z,34.97
2023-02-27T19:53:18.107Z,30.83
2023-02-27T19:55:19.975Z,32.65
2023-02-27T19:57:22.133Z,27.00
2023-02-27T19:59:24.707Z,32.28
2023-02-27T20:01:31.000Z,28.40
2023-02-27T20:03:34.775Z,33.72
2023-02-27T20:05:39.902Z,30.25
2023-02-27T20:07:42.450Z,27.60
2023-02-27T20:09:44.442Z,26.70
2023-02-27T20:13:51.518Z,17.00
2023-02-27T20:16:04.927Z,28.52
2023-02-27T20:18:06.839Z,24.30
2023-02-27T20:20:09.783Z,24.75
2023-02-27T20:22:13.624Z,30.45
2023-02-27T20:24:16.488Z,29.98
2023-02-27T20:26:21.208Z,30.35
2023-02-27T20:28:23.517Z,30.35
2023-02-27T20:30:25.486Z,14.73
2023-02-27T20:34:29.575Z,28.23
2023-02-27T20:38:34.191Z,25.70
2023-02-27T20:40:36.078Z,24.15
2023-02-27T20:42:37.985Z,28.50
2023-02-27T20:46:43.526Z,27.20
2023-02-27T20:48:57.963Z,27.88
2023-02-27T20:51:15.395Z,20.98
2023-02-27T20:53:17.275Z,14.82
2023-02-27T20:55:19.318Z,27.83
2023-02-27T20:59:25.602Z,23.30
2023-02-27T21:01:28.538Z,27.73
2023-02-27T21:03:38.439Z,25.55
2023-02-27T21:05:49.648Z,21.55
2023-02-27T21:07:51.719Z,29.67
2023-02-27T21:09:53.674Z,17.40
2023-02-27T21:16:00.993Z,19.77
2023-02-27T21:18:03.354Z,23.92
2023-02-27T21:20:06.985Z,30.77
2023-02-27T21:22:11.601Z,21.80
2023-02-27T21:24:14.906Z,19.40
2023-02-27T21:26:20.691Z,32.25
2023-02-27T21:28:24.851Z,30.00
2023-02-27T21:30:29.978Z,23.88
2023-02-27T21:32:32.132Z,15.68
2023-02-27T21:34:37.198Z,28.90
2023-02-27T21:36:42.914Z,16.65
2023-02-27T21:38:46.016Z,23.73
2023-02-27T21:40:47.918Z,34.28
2023-02-27T21:42:50.799Z,27.45
2023-02-27T21:44:52.665Z,22.60
2023-02-27T21:46:54.810Z,27.77
2023-02-27T21:49:07.649Z,17.02
2023-02-27T21:51:09.640Z,21.08
2023-02-27T21:55:25.886Z,11.25
2023-02-27T21:57:27.823Z,19.70
2023-02-27T22:01:32.933Z,22.48
2023-02-27T22:03:34.968Z,20.52
2023-02-27T22:05:41.024Z,30.15
2023-02-27T22:07:43.002Z,22.67
2023-02-27T22:11:47.452Z,23.85
2023-02-27T22:13:49.744Z,24.33
2023-02-27T22:15:52.498Z,28.27
2023-02-27T22:17:55.626Z,27.55
2023-02-27T22:19:57.548Z,32.38
2023-02-27T22:24:01.391Z,26.60
2023-02-27T22:28:07.400Z,19.48
2023-02-27T22:30:10.623Z,28.05
2023-02-27T22:32:12.562Z,16.55
2023-02-27T22:36:30.765Z,16.08
2023-02-27T22:38:32.732Z,21.30
2023-02-27T22:42:38.016Z,23.08
2023-02-27T22:44:41.902Z,23.10
2023-02-27T22:46:47.060Z,26.48
2023-02-27T22:48:55.552Z,27.92
2023-02-27T22:51:07.081Z,24.55
2023-02-27T22:53:09.098Z,23.65
2023-02-27T22:55:11.378Z,27.80
2023-02-27T22:57:13.349Z,27.85
2023-02-27T23:01:22.553Z,27.05
2023-02-27T23:03:25.303Z,25.55
2023-02-27T23:05:27.556Z,24.27
2023-02-27T23:07:29.504Z,26.02
2023-02-27T23:11:33.470Z,21.67
2023-02-27T23:13:38.248Z,21.90
2023-02-27T23:15:40.196Z,24.75
2023-02-27T23:19:59.904Z,22.75
2023-02-27T23:22:01.758Z,20.67
2023-02-27T23:24:05.871Z,22.25
2023-02-27T23:26:09.450Z,21.75
2023-02-27T23:28:14.564Z,15.48
2023-02-27T23:30:16.887Z,18.25
2023-02-27T23:32:18.859Z,22.40
2023-02-27T23:36:25.682Z,11.77
2023-02-27T23:38:29.417Z,21.98
2023-02-27T23:40:32.159Z,8.98
2023-02-27T23:42:53.549Z,17.45
2023-02-27T23:45:10.384Z,19.80
2023-02-27T23:47:30.928Z,18.17
2023-02-27T23:49:33.538Z,19.95
2023-02-27T23:51:35.951Z,17.40
2023-02-27T23:53:40.535Z,13.00
2023-02-27T23:55:43.805Z,16.58
2023-02-27T23:57:46.118Z,10.60
2023-02-27T23:59:48.081Z,21.05
